createdAt,value
2023-04-17T00:00:06.414Z,12.20
2023-04-17T00:02:33.437Z,12.10
2023-04-17T00:05:00.538Z,11.90
2023-04-17T00:07:27.517Z,11.90
2023-04-17T00:09:54.463Z,11.90
2023-04-17T00:12:21.353Z,12.00
2023-04-17T00:14:48.190Z,11.90
2023-04-17T00:17:15.096Z,11.80
2023-04-17T00:19:41.955Z,11.70
2023-04-17T00:22:08.874Z,11.50
2023-04-17T00:24:35.796Z,11.40
2023-04-17T00:27:02.698Z,11.40
2023-04-17T00:29:29.617Z,11.30
2023-04-17T00:31:56.543Z,11.30
2023-04-17T00:34:23.432Z,11.20
2023-04-17T00:36:50.353Z,10.90
2023-04-17T00:39:17.254Z,10.70
2023-04-17T00:41:44.143Z,10.70
2023-04-17T00:44:11.050Z,10.80
2023-04-17T00:46:37.970Z,10.80
2023-04-17T00:49:04.898Z,10.80
2023-04-17T00:51:31.855Z,10.70
2023-04-17T00:53:58.958Z,10.50
2023-04-17T00:56:25.821Z,10.40
2023-04-17T00:58:52.894Z,10.40
2023-04-17T01:01:19.831Z,10.40
2023-04-17T01:03:46.914Z,10.50
2023-04-17T01:06:13.965Z,10.60
2023-04-17T01:08:42.688Z,10.70
2023-04-17T01:11:10.369Z,10.90
2023-04-17T01:13:47.768Z,11.00
2023-04-17T01:16:15.077Z,10.90
2023-04-17T01:18:42.075Z,10.70
2023-04-17T01:21:09.056Z,10.50
2023-04-17T01:23:47.427Z,10.40
2023-04-17T01:26:22.373Z,10.30
2023-04-17T01:28:57.119Z,10.40
2023-04-17T01:31:24.902Z,10.40
2023-04-17T01:33:51.938Z,10.50
2023-04-17T01:36:19.238Z,10.40
2023-04-17T01:38:46.129Z,10.40
2023-04-17T01:41:13.206Z,10.40
2023-04-17T01:43:45.057Z,10.30
2023-04-17T01:46:12.108Z,10.30
2023-04-17T01:48:39.312Z,10.30
2023-04-17T01:51:06.393Z,10.30
2023-04-17T01:53:33.647Z,10.20
2023-04-17T01:56:00.628Z,10.20
2023-04-17T01:58:27.500Z,10.30
2023-04-17T02:00:54.436Z,10.30
2023-04-17T02:03:21.466Z,10.30
2023-04-17T02:05:48.406Z,10.20
2023-04-17T02:08:15.370Z,10.20
2023-04-17T02:10:42.782Z,10.30
2023-04-17T02:13:10.349Z,10.20
2023-04-17T02:15:37.716Z,10.20
2023-04-17T02:18:05.131Z,10.10
2023-04-17T02:20:33.228Z,10.10
2023-04-17T02:23:00.625Z,10.00
2023-04-17T02:25:28.102Z,9.70
2023-04-17T02:27:55.676Z,9.40
2023-04-17T02:30:24.050Z,9.20
2023-04-17T02:32:51.619Z,9.10
2023-04-17T02:35:25.203Z,9.00
2023-04-17T02:37:52.097Z,9.00
2023-04-17T02:40:19.129Z,8.90
2023-04-17T02:42:46.062Z,8.70
2023-04-17T02:45:12.976Z,8.70
2023-04-17T02:47:40.075Z,8.60
2023-04-17T02:50:07.841Z,8.60
2023-04-17T02:52:34.736Z,8.50
2023-04-17T02:55:01.615Z,8.50
2023-04-17T02:57:28.468Z,8.60
2023-04-17T02:59:55.335Z,8.80
2023-04-17T03:02:22.338Z,8.70
2023-04-17T03:04:49.737Z,8.60
2023-04-17T03:07:18.074Z,8.40
2023-04-17T03:09:46.712Z,8.40
2023-04-17T03:12:14.780Z,8.30
2023-04-17T03:14:42.020Z,8.20
2023-04-17T03:17:09.700Z,8.10
2023-04-17T03:19:36.743Z,7.90
2023-04-17T03:22:03.973Z,7.70
2023-04-17T03:24:30.874Z,7.50
2023-04-17T03:26:58.871Z,7.50
2023-04-17T03:29:25.752Z,7.50
2023-04-17T03:31:52.813Z,7.50
2023-04-17T03:34:21.862Z,7.40
2023-04-17T03:36:48.950Z,7.40
2023-04-17T03:39:15.848Z,7.40
2023-04-17T03:41:42.743Z,7.40
2023-04-17T03:44:09.661Z,7.50
2023-04-17T03:46:37.617Z,7.60
2023-04-17T03:49:04.978Z,7.80
2023-04-17T03:51:31.866Z,8.10
2023-04-17T03:53:58.829Z,8.20
2023-04-17T03:56:25.730Z,8.20
2023-04-17T03:58:52.649Z,8.10
2023-04-17T04:01:19.736Z,8.00
2023-04-17T04:03:46.762Z,7.90
2023-04-17T04:06:13.777Z,8.00
2023-04-17T04:08:40.685Z,8.00
2023-04-17T04:11:07.594Z,8.00
2023-04-17T04:13:34.470Z,7.90
2023-04-17T04:16:01.421Z,7.90
2023-04-17T04:18:28.321Z,7.80
2023-04-17T04:20:55.198Z,7.70
2023-04-17T04:23:22.043Z,7.80
2023-04-17T04:25:48.908Z,7.90
2023-04-17T04:28:15.822Z,8.00
2023-04-17T04:30:42.678Z,8.10
2023-04-17T04:33:09.576Z,8.10
2023-04-17T04:35:38.221Z,8.10
2023-04-17T04:38:05.274Z,7.90
2023-04-17T04:40:33.606Z,7.90
2023-04-17T04:43:00.472Z,7.90
2023-04-17T04:45:27.347Z,7.90
2023-04-17T04:47:54.278Z,7.80
2023-04-17T04:50:23.241Z,7.70
2023-04-17T04:52:50.126Z,7.80
2023-04-17T04:55:17.094Z,7.90
2023-04-17T04:57:43.961Z,7.90
2023-04-17T05:00:11.758Z,7.80
2023-04-17T05:02:38.881Z,7.80
2023-04-17T05:05:06.550Z,7.70
2023-04-17T05:07:33.526Z,7.60
2023-04-17T05:10:00.404Z,7.60
2023-04-17T05:12:27.287Z,7.40
2023-04-17T05:14:54.251Z,7.50
2023-04-17T05:17:21.210Z,7.50
2023-04-17T05:19:48.082Z,7.50
2023-04-17T05:22:14.941Z,7.50
2023-04-17T05:24:41.903Z,7.40
2023-04-17T05:27:30.803Z,7.40
2023-04-17T05:29:57.712Z,7.60
2023-04-17T05:32:24.620Z,7.70
2023-04-17T05:34:51.553Z,8.00
2023-04-17T05:37:18.500Z,8.10
2023-04-17T05:39:45.379Z,8.20
2023-04-17T05:42:12.241Z,8.40
2023-04-17T05:44:39.657Z,8.50
2023-04-17T05:47:06.633Z,8.70
2023-04-17T05:49:33.516Z,8.90
2023-04-17T05:52:00.385Z,9.10
2023-04-17T05:54:27.243Z,9.40
2023-04-17T05:56:54.126Z,10.40
2023-04-17T05:59:21.046Z,10.80
2023-04-17T06:01:47.954Z,13.20
2023-04-17T06:04:15.272Z,16.80
2023-04-17T06:06:42.411Z,19.70
2023-04-17T06:09:09.366Z,21.40
2023-04-17T06:11:36.466Z,21.10
2023-04-17T06:14:03.350Z,19.50
2023-04-17T06:16:30.317Z,19.80
2023-04-17T06:18:57.190Z,21.60
2023-04-17T06:21:24.054Z,24.50
2023-04-17T06:23:50.946Z,22.30
2023-04-17T06:26:17.928Z,21.70
2023-04-17T06:28:44.810Z,24.30
2023-04-17T06:31:12.049Z,25.70
2023-04-17T06:33:39.054Z,26.20
2023-04-17T06:36:06.258Z,27.20
2023-04-17T06:38:33.107Z,28.00
2023-04-17T06:40:59.968Z,28.70
2023-04-17T06:43:26.837Z,28.70
2023-04-17T06:45:53.797Z,28.90
2023-04-17T06:48:20.668Z,29.10
2023-04-17T06:50:47.557Z,29.50
2023-04-17T06:53:14.464Z,29.90
2023-04-17T06:55:41.367Z,30.10
2023-04-17T06:58:08.927Z,30.70
2023-04-17T07:00:35.806Z,30.70
2023-04-17T07:03:02.917Z,31.10
2023-04-17T07:05:29.931Z,32.10
2023-04-17T07:07:56.827Z,32.20
2023-04-17T07:10:23.723Z,32.10
2023-04-17T07:12:50.609Z,32.90
2023-04-17T07:15:17.572Z,33.50
2023-04-17T07:17:44.558Z,32.70
2023-04-17T07:20:12.178Z,33.40
2023-04-17T07:22:39.121Z,33.50
2023-04-17T07:25:07.163Z,33.90
2023-04-17T07:27:34.051Z,33.30
2023-04-17T07:30:00.920Z,33.80
2023-04-17T07:32:27.811Z,34.00
2023-04-17T07:34:54.695Z,33.90
2023-04-17T07:37:21.623Z,33.30
2023-04-17T07:39:52.396Z,33.70
2023-04-17T07:42:19.236Z,33.60
2023-04-17T07:44:46.628Z,33.90
2023-04-17T07:47:13.563Z,34.10
2023-04-17T07:49:40.616Z,34.40
2023-04-17T07:52:07.503Z,34.00
2023-04-17T07:54:34.419Z,33.70
2023-04-17T07:57:01.395Z,33.10
2023-04-17T07:59:29.139Z,33.70
2023-04-17T08:01:56.173Z,33.60
2023-04-17T08:04:23.268Z,33.70
2023-04-17T08:06:50.238Z,34.20
2023-04-17T08:09:17.105Z,33.60
2023-04-17T08:11:56.129Z,33.00
2023-04-17T08:14:24.666Z,32.50
2023-04-17T08:16:51.608Z,32.80
2023-04-17T08:19:18.541Z,32.60
2023-04-17T08:21:47.792Z,32.90
2023-04-17T08:24:15.221Z,33.10
2023-04-17T08:26:43.562Z,32.80
2023-04-17T08:29:10.648Z,32.60
2023-04-17T08:31:37.677Z,31.60
2023-04-17T08:34:13.783Z,31.50
2023-04-17T08:36:41.611Z,31.10
2023-04-17T08:39:08.554Z,31.10
2023-04-17T08:41:39.840Z,31.30
2023-04-17T08:44:06.691Z,31.00
2023-04-17T08:46:33.595Z,30.70
2023-04-17T08:49:02.725Z,31.00
2023-04-17T08:51:29.653Z,30.80
2023-04-17T08:53:56.530Z,30.80
2023-04-17T08:56:23.491Z,31.00
2023-04-17T08:58:50.340Z,30.80
2023-04-17T09:01:17.220Z,30.50
2023-04-17T09:03:47.592Z,30.00
2023-04-17T09:06:15.225Z,29.70
2023-04-17T09:09:00.319Z,29.40
2023-04-17T09:11:27.408Z,29.30
2023-04-17T09:13:54.439Z,29.50
2023-04-17T09:16:21.614Z,29.10
2023-04-17T09:18:48.678Z,28.90
2023-04-17T09:21:19.408Z,28.30
2023-04-17T09:23:50.488Z,28.10
2023-04-17T09:26:22.513Z,28.00
2023-04-17T09:29:04.329Z,28.00
2023-04-17T09:31:32.311Z,28.20
2023-04-17T09:34:12.116Z,27.90
2023-04-17T09:36:43.273Z,27.20
2023-04-17T09:39:23.276Z,27.00
2023-04-17T09:41:50.463Z,26.90
2023-04-17T09:44:28.213Z,27.00
2023-04-17T09:46:55.441Z,26.40
2023-04-17T09:49:40.412Z,26.10
2023-04-17T09:52:07.478Z,25.70
2023-04-17T09:54:34.751Z,25.60
2023-04-17T09:57:01.636Z,25.50
2023-04-17T09:59:28.527Z,25.50
2023-04-17T10:01:55.795Z,25.50
2023-04-17T10:04:23.053Z,25.30
2023-04-17T10:06:50.163Z,24.70
2023-04-17T10:09:17.083Z,24.10
2023-04-17T10:11:47.086Z,24.10
2023-04-17T10:14:19.840Z,24.00
2023-04-17T10:16:46.783Z,23.70
2023-04-17T10:19:33.112Z,23.30
2023-04-17T10:22:18.405Z,23.50
2023-04-17T10:24:50.077Z,23.70
2023-04-17T10:27:26.065Z,23.80
2023-04-17T10:30:04.089Z,24.10
2023-04-17T10:32:31.656Z,24.00
2023-04-17T10:35:02.320Z,23.90
2023-04-17T10:37:47.531Z,23.80
2023-04-17T10:40:22.809Z,23.70
2023-04-17T10:43:15.376Z,23.70
2023-04-17T10:46:08.948Z,23.20
2023-04-17T10:48:37.256Z,22.90
2023-04-17T10:51:22.647Z,23.10
2023-04-17T10:53:49.930Z,23.00
2023-04-17T10:56:53.332Z,23.00
2023-04-17T10:59:20.212Z,22.80
2023-04-17T11:01:50.151Z,23.10
2023-04-17T11:04:30.846Z,23.30
2023-04-17T11:06:58.193Z,23.60
2023-04-17T11:09:27.039Z,23.70
2023-04-17T11:11:54.045Z,23.60
2023-04-17T11:14:22.938Z,23.70
2023-04-17T11:16:51.424Z,23.30
2023-04-17T11:19:20.328Z,23.50
2023-04-17T11:21:56.448Z,23.10
2023-04-17T11:24:27.777Z,23.20
2023-04-17T11:26:56.653Z,23.30
2023-04-17T11:29:23.858Z,23.40
2023-04-17T11:31:55.429Z,23.50
2023-04-17T11:34:22.567Z,23.70
2023-04-17T11:36:57.519Z,23.60
2023-04-17T11:39:26.613Z,23.20
2023-04-17T11:41:53.584Z,23.10
2023-04-17T11:44:20.502Z,23.10
2023-04-17T11:46:51.443Z,23.10
2023-04-17T11:49:38.820Z,23.20
2023-04-17T11:52:05.889Z,23.30
2023-04-17T11:54:37.389Z,23.30
2023-04-17T11:57:06.743Z,23.50
2023-04-17T11:59:38.032Z,23.60
2023-04-17T12:02:06.212Z,23.80
2023-04-17T12:04:34.429Z,23.90
2023-04-17T12:07:02.987Z,24.00
2023-04-17T12:09:30.079Z,24.00
2023-04-17T12:11:57.422Z,23.50
2023-04-17T12:14:26.311Z,23.70
2023-04-17T12:16:53.441Z,23.60
2023-04-17T12:19:20.319Z,23.20
2023-04-17T12:21:47.182Z,22.90
2023-04-17T12:24:14.806Z,22.80
2023-04-17T12:26:50.940Z,22.50
2023-04-17T12:29:20.233Z,22.50
2023-04-17T12:31:49.232Z,22.80
2023-04-17T12:34:16.122Z,22.90
2023-04-17T12:36:43.129Z,23.00
2023-04-17T12:39:10.057Z,23.20
2023-04-17T12:41:36.991Z,23.20
2023-04-17T12:44:03.965Z,23.30
2023-04-17T12:46:31.088Z,23.20
2023-04-17T12:48:58.000Z,23.30
2023-04-17T12:51:26.047Z,23.40
2023-04-17T12:53:52.967Z,23.20
2023-04-17T12:56:19.989Z,23.30
2023-04-17T12:58:46.921Z,23.10
2023-04-17T13:01:13.840Z,23.20
2023-04-17T13:03:40.895Z,23.20
2023-04-17T13:06:08.109Z,23.30
2023-04-17T13:08:35.002Z,23.20
2023-04-17T13:11:01.946Z,23.20
2023-04-17T13:13:28.824Z,23.40
2023-04-17T13:15:55.765Z,23.70
2023-04-17T13:18:22.677Z,23.50
2023-04-17T13:20:49.576Z,23.70
2023-04-17T13:23:16.451Z,23.90
2023-04-17T13:25:43.540Z,23.90
2023-04-17T13:28:10.805Z,23.50
2023-04-17T13:30:37.872Z,23.60
2023-04-17T13:33:04.929Z,23.50
2023-04-17T13:35:31.978Z,23.50
2023-04-17T13:37:58.908Z,23.40
2023-04-17T13:40:25.740Z,23.50
2023-04-17T13:42:52.655Z,23.40
2023-04-17T13:45:19.539Z,23.30
2023-04-17T13:47:46.504Z,23.30
2023-04-17T13:50:13.424Z,23.30
2023-04-17T13:52:40.626Z,23.40
2023-04-17T13:55:08.456Z,23.50
2023-04-17T13:57:35.640Z,23.40
2023-04-17T14:00:02.542Z,23.50
2023-04-17T14:02:29.575Z,23.40
2023-04-17T14:04:56.666Z,23.40
2023-04-17T14:07:23.552Z,23.30
2023-04-17T14:09:50.452Z,23.60
2023-04-17T14:12:17.330Z,23.70
2023-04-17T14:14:44.208Z,23.50
2023-04-17T14:17:11.022Z,23.60
2023-04-17T14:19:37.952Z,23.40
2023-04-17T14:22:04.789Z,23.70
2023-04-17T14:24:31.668Z,23.80
2023-04-17T14:26:58.550Z,23.40
2023-04-17T14:29:25.467Z,23.00
2023-04-17T14:31:52.370Z,23.00
2023-04-17T14:34:19.286Z,23.20
2023-04-17T14:36:46.163Z,23.40
2023-04-17T14:39:13.298Z,23.40
2023-04-17T14:41:40.417Z,23.40
2023-04-17T14:44:07.281Z,23.00
2023-04-17T14:46:34.174Z,22.80
2023-04-17T14:49:01.131Z,22.80
2023-04-17T14:51:28.056Z,22.90
2023-04-17T14:53:54.921Z,22.70
2023-04-17T14:56:21.973Z,22.90
2023-04-17T14:58:49.094Z,23.00
2023-04-17T15:01:16.111Z,23.10
2023-04-17T15:03:45.135Z,23.10
2023-04-17T15:06:14.460Z,23.20
2023-04-17T15:08:41.358Z,22.80
2023-04-17T15:11:08.300Z,22.70
2023-04-17T15:13:35.163Z,22.70
2023-04-17T15:16:02.121Z,22.70
2023-04-17T15:18:29.066Z,22.80
2023-04-17T15:20:55.937Z,22.90
2023-04-17T15:23:23.002Z,22.80
2023-04-17T15:25:49.857Z,22.50
2023-04-17T15:28:16.691Z,22.30
2023-04-17T15:30:43.510Z,22.40
2023-04-17T15:33:10.596Z,22.50
2023-04-17T15:35:38.398Z,22.50
2023-04-17T15:38:06.909Z,22.60
2023-04-17T15:40:33.928Z,22.70
2023-04-17T15:43:01.379Z,22.80
2023-04-17T15:45:28.287Z,22.70
2023-04-17T15:47:55.312Z,22.70
2023-04-17T15:50:23.043Z,22.90
2023-04-17T15:52:49.947Z,22.80
2023-04-17T15:55:16.990Z,22.70
2023-04-17T15:57:43.869Z,22.60
2023-04-17T16:00:11.744Z,22.60
2023-04-17T16:02:38.676Z,22.60
2023-04-17T16:05:06.223Z,22.40
2023-04-17T16:07:33.148Z,22.40
2023-04-17T16:10:00.016Z,22.30
2023-04-17T16:12:26.868Z,22.20
2023-04-17T16:14:53.754Z,21.90
2023-04-17T16:17:20.832Z,21.90
2023-04-17T16:19:50.159Z,21.90
2023-04-17T16:22:18.594Z,21.90
2023-04-17T16:24:45.527Z,21.80
2023-04-17T16:27:12.376Z,21.80
2023-04-17T16:29:39.193Z,21.70
2023-04-17T16:32:06.067Z,21.60
2023-04-17T16:34:32.922Z,21.40
2023-04-17T16:36:59.807Z,21.20
2023-04-17T16:39:26.695Z,21.10
2023-04-17T16:41:53.545Z,21.30
2023-04-17T16:44:20.416Z,21.50
2023-04-17T16:47:05.569Z,21.50
2023-04-17T16:49:34.105Z,21.40
2023-04-17T16:52:00.995Z,21.50
2023-04-17T16:54:27.872Z,21.50
2023-04-17T16:56:54.739Z,21.50
2023-04-17T16:59:21.588Z,21.30
2023-04-17T17:01:48.457Z,21.10
2023-04-17T17:04:15.885Z,21.10
2023-04-17T17:06:42.859Z,21.20
2023-04-17T17:09:09.793Z,21.10
2023-04-17T17:11:38.013Z,20.90
2023-04-17T17:14:04.895Z,20.80
2023-04-17T17:16:31.857Z,20.90
2023-04-17T17:18:58.816Z,20.90
2023-04-17T17:21:25.754Z,20.80
2023-04-17T17:23:52.632Z,20.60
2023-04-17T17:26:19.549Z,20.40
2023-04-17T17:28:46.451Z,20.40
2023-04-17T17:31:13.336Z,20.30
2023-04-17T17:33:40.271Z,20.20
2023-04-17T17:36:07.251Z,20.10
2023-04-17T17:38:34.100Z,19.90
2023-04-17T17:41:00.988Z,19.90
2023-04-17T17:43:27.881Z,19.80
2023-04-17T17:45:54.833Z,19.70
2023-04-17T17:48:21.997Z,19.70
2023-04-17T17:50:52.804Z,19.60
2023-04-17T17:53:21.409Z,19.50
2023-04-17T17:55:53.631Z,19.50
2023-04-17T17:58:20.499Z,19.40
2023-04-17T18:00:48.287Z,19.30
2023-04-17T18:03:15.251Z,19.20
2023-04-17T18:05:45.695Z,19.10
2023-04-17T18:08:13.809Z,19.10
2023-04-17T18:10:41.809Z,19.00
2023-04-17T18:13:08.764Z,19.00
2023-04-17T18:15:36.357Z,19.00
2023-04-17T18:18:03.754Z,19.00
2023-04-17T18:20:40.744Z,19.00
2023-04-17T18:23:07.685Z,18.80
2023-04-17T18:25:34.603Z,18.40
2023-04-17T18:28:03.338Z,18.20
2023-04-17T18:30:30.661Z,17.90
2023-04-17T18:33:00.188Z,17.80
2023-04-17T18:35:28.884Z,17.70
2023-04-17T18:38:03.547Z,17.80
2023-04-17T18:40:33.279Z,17.80
2023-04-17T18:43:43.660Z,17.80
2023-04-17T18:46:24.732Z,17.80
2023-04-17T18:48:52.974Z,17.80
2023-04-17T18:51:20.279Z,17.70
2023-04-17T18:57:13.452Z,17.70
2023-04-17T18:59:45.430Z,17.70
2023-04-17T19:05:23.589Z,17.70
2023-04-17T19:08:01.966Z,17.50
2023-04-17T19:13:27.164Z,17.10
2023-04-17T19:16:08.266Z,16.90
2023-04-17T19:19:11.473Z,16.60
2023-04-17T19:21:28.219Z,16.30
2023-04-17T19:23:55.087Z,16.10
2023-04-17T19:26:22.010Z,16.00
2023-04-17T19:28:48.857Z,16.10
2023-04-17T19:31:15.731Z,16.00
2023-04-17T19:33:43.041Z,15.90
2023-04-17T19:36:09.950Z,15.70
2023-04-17T19:38:36.862Z,15.50
2023-04-17T19:41:17.147Z,15.40
2023-04-17T19:43:48.104Z,15.30
2023-04-17T19:46:15.137Z,15.20
2023-04-17T19:48:43.064Z,15.30
2023-04-17T19:51:10.326Z,15.40
2023-04-17T19:53:39.389Z,15.30
2023-04-17T19:56:08.452Z,15.10
2023-04-17T19:58:36.097Z,15.00
2023-04-17T20:01:03.256Z,14.80
2023-04-17T20:03:30.599Z,14.70
2023-04-17T20:05:57.840Z,14.60
2023-04-17T20:08:25.478Z,14.50
2023-04-17T20:10:52.450Z,14.30
2023-04-17T20:13:19.425Z,14.20
2023-04-17T20:15:46.330Z,14.20
2023-04-17T20:18:13.453Z,14.00
2023-04-17T20:20:40.367Z,14.00
2023-04-17T20:23:07.205Z,14.10
2023-04-17T20:25:34.226Z,14.10
2023-04-17T20:28:01.298Z,14.10
2023-04-17T20:30:28.331Z,14.20
2023-04-17T20:32:55.352Z,14.10
2023-04-17T20:35:22.329Z,14.10
2023-04-17T20:37:49.213Z,14.00
2023-04-17T20:40:16.064Z,14.00
2023-04-17T20:42:43.860Z,14.00
2023-04-17T20:45:11.366Z,14.00
2023-04-17T20:47:43.518Z,13.90
2023-04-17T20:50:22.220Z,13.80
2023-04-17T20:52:49.140Z,13.80
2023-04-17T20:55:16.059Z,13.70
2023-04-17T20:57:42.964Z,13.60
2023-04-17T21:00:10.645Z,13.50
2023-04-17T21:02:37.894Z,13.30
2023-04-17T21:05:06.701Z,13.20
2023-04-17T21:07:34.057Z,13.10
2023-04-17T21:10:01.128Z,13.00
2023-04-17T21:12:28.355Z,12.80
2023-04-17T21:14:55.322Z,12.70
2023-04-17T21:17:23.231Z,12.70
2023-04-17T21:19:50.321Z,12.70
2023-04-17T21:22:17.324Z,12.70
2023-04-17T21:24:44.340Z,12.80
2023-04-17T21:27:11.348Z,12.80
2023-04-17T21:29:38.256Z,12.70
2023-04-17T21:32:05.368Z,12.70
2023-04-17T21:34:32.336Z,12.80
2023-04-17T21:36:59.881Z,12.80
2023-04-17T21:39:26.804Z,12.80
2023-04-17T21:41:53.720Z,12.80
2023-04-17T21:44:20.666Z,12.80
2023-04-17T21:46:47.720Z,12.70
2023-04-17T21:49:14.626Z,12.70
2023-04-17T21:51:41.476Z,12.60
2023-04-17T21:54:08.869Z,12.60
2023-04-17T21:56:38.196Z,12.50
2023-04-17T21:59:05.075Z,12.40
2023-04-17T22:01:32.022Z,12.50
2023-04-17T22:03:58.893Z,12.60
2023-04-17T22:06:25.745Z,12.60
2023-04-17T22:08:52.597Z,12.60
2023-04-17T22:11:19.486Z,12.60
2023-04-17T22:13:46.336Z,12.70
2023-04-17T22:16:13.272Z,12.60
2023-04-17T22:18:40.174Z,12.60
2023-04-17T22:21:44.639Z,12.50
2023-04-17T22:24:11.648Z,12.40
2023-04-17T22:27:35.193Z,12.30
2023-04-17T22:30:02.093Z,12.30
2023-04-17T22:32:47.748Z,12.30
2023-04-17T22:35:54.551Z,12.30
2023-04-17T22:38:39.703Z,12.30
2023-04-17T22:41:44.029Z,12.30
2023-04-17T22:44:29.058Z,12.30
2023-04-17T22:46:55.969Z,12.30
2023-04-17T22:49:22.862Z,12.30
2023-04-17T22:51:49.750Z,12.40
2023-04-17T22:54:22.845Z,12.50
2023-04-17T22:56:50.253Z,12.40
2023-04-17T22:59:17.190Z,12.50
2023-04-17T23:01:44.078Z,12.30
2023-04-17T23:04:11.114Z,12.00
2023-04-17T23:06:41.643Z,11.80
2023-04-17T23:11:43.020Z,11.40
2023-04-17T23:14:09.969Z,11.30
2023-04-17T23:16:37.007Z,11.30
2023-04-17T23:19:03.907Z,11.30
2023-04-17T23:21:31.135Z,11.20
2023-04-17T23:23:58.089Z,11.20
2023-04-17T23:26:25.051Z,11.20
2023-04-17T23:28:51.981Z,11.30
2023-04-17T23:31:18.878Z,11.40
2023-04-17T23:33:45.739Z,11.60
2023-04-17T23:36:12.581Z,11.70
2023-04-17T23:38:39.545Z,11.80
2023-04-17T23:41:06.434Z,11.80
2023-04-17T23:43:33.493Z,11.70
2023-04-17T23:46:00.402Z,11.50
2023-04-17T23:48:27.315Z,11.40
2023-04-17T23:50:54.290Z,11.40
2023-04-17T23:53:21.169Z,11.30
2023-04-17T23:55:48.005Z,11.40
2023-04-17T23:58:14.864Z,11.40
